createdAt,value
2023-05-14T02:47:43.723Z,63.22
2023-05-14T02:52:37.054Z,63.60
2023-05-14T02:57:29.920Z,63.90
2023-05-14T03:02:23.281Z,64.01
2023-05-14T03:07:17.199Z,64.36
2023-05-14T03:12:10.205Z,64.64
2023-05-14T03:17:04.132Z,64.54
2023-05-14T03:21:57.020Z,64.74
2023-05-14T03:26:49.801Z,64.91
2023-05-14T03:31:43.601Z,65.18
2023-05-14T03:36:37.951Z,65.28
2023-05-14T03:41:30.801Z,65.30
2023-05-14T03:46:23.666Z,65.18
2023-05-14T03:51:16.646Z,65.13
2023-05-14T03:56:09.485Z,65.21
2023-05-14T04:01:02.381Z,65.42
2023-05-14T04:05:55.244Z,65.59
2023-05-14T04:10:48.146Z,65.53
2023-05-14T04:15:41.377Z,65.77
2023-05-14T04:20:34.443Z,65.76
2023-05-14T04:25:31.557Z,65.98
2023-05-14T04:30:24.705Z,66.20
2023-05-14T04:35:17.926Z,66.47
2023-05-14T04:40:13.833Z,66.47
2023-05-14T04:45:09.056Z,66.75
2023-05-14T04:50:01.942Z,66.78
2023-05-14T04:54:54.886Z,66.94
2023-05-14T04:59:48.080Z,66.83
2023-05-14T05:04:40.942Z,66.77
2023-05-14T05:09:33.768Z,66.82
2023-05-14T05:14:31.109Z,66.72
2023-05-14T05:19:35.855Z,66.38
2023-05-14T05:24:32.886Z,66.30
2023-05-14T05:29:28.026Z,65.93
2023-05-14T05:34:20.929Z,65.60
2023-05-14T05:39:13.813Z,65.27
2023-05-14T05:44:07.946Z,64.74
2023-05-14T05:49:00.852Z,64.38
2023-05-14T05:53:53.929Z,63.81
2023-05-14T05:58:46.764Z,63.42
2023-05-14T06:03:42.114Z,62.69
2023-05-14T06:08:35.683Z,61.49
2023-05-14T06:13:29.749Z,58.81
2023-05-14T06:18:27.722Z,57.75
2023-05-14T06:23:21.176Z,56.09
2023-05-14T06:28:15.483Z,52.34
2023-05-14T06:33:08.370Z,51.70
2023-05-14T06:38:01.795Z,50.43
2023-05-14T06:42:54.743Z,48.91
2023-05-14T06:47:47.669Z,48.51
2023-05-14T06:52:40.590Z,47.76
2023-05-14T06:57:53.494Z,46.69
2023-05-14T07:02:54.910Z,44.57
2023-05-14T07:07:55.666Z,42.72
2023-05-14T07:12:56.255Z,40.34
2023-05-14T07:18:00.331Z,38.97
2023-05-14T07:22:58.206Z,36.97
2023-05-14T07:33:38.470Z,30.73
2023-05-14T07:39:07.263Z,28.74
2023-05-14T07:44:01.363Z,26.42
2023-05-14T07:49:15.408Z,24.45
2023-05-14T07:55:21.713Z,24.23
2023-05-14T07:59:35.591Z,24.10
2023-05-14T08:04:30.559Z,23.65
2023-05-14T08:09:23.400Z,24.33
2023-05-14T08:14:16.174Z,23.96
2023-05-14T08:19:09.040Z,23.06
2023-05-14T08:24:01.957Z,23.75
2023-05-14T08:28:55.575Z,25.32
2023-05-14T08:33:48.393Z,23.71
2023-05-14T08:38:42.156Z,22.62
2023-05-14T08:43:56.537Z,23.08
2023-05-14T08:48:52.327Z,24.46
2023-05-14T08:53:45.902Z,25.53
2023-05-14T08:58:38.765Z,26.32
2023-05-14T09:03:32.380Z,26.33
2023-05-14T09:08:25.316Z,25.96
2023-05-14T09:13:18.101Z,25.93
2023-05-14T09:18:11.274Z,26.43
2023-05-14T09:23:04.252Z,25.86
2023-05-14T09:27:59.071Z,24.76
2023-05-14T09:32:55.153Z,23.35
2023-05-14T09:37:53.687Z,21.32
2023-05-14T09:42:48.273Z,20.22
2023-05-14T09:47:41.835Z,19.55
2023-05-14T09:52:35.360Z,18.51
2023-05-14T09:57:29.173Z,17.84
2023-05-14T10:02:37.632Z,18.03
2023-05-14T10:07:36.474Z,17.06
2023-05-14T10:12:33.680Z,16.74
2023-05-14T10:17:32.596Z,16.50
2023-05-14T10:22:32.170Z,17.76
2023-05-14T10:27:28.490Z,18.62
2023-05-14T10:32:24.428Z,18.46
2023-05-14T10:37:22.662Z,18.07
2023-05-14T10:42:28.370Z,18.68
2023-05-14T10:47:21.360Z,19.00
2023-05-14T10:52:14.146Z,20.02
2023-05-14T10:57:12.698Z,21.11
2023-05-14T11:02:06.766Z,21.12
2023-05-14T11:07:01.304Z,20.27
2023-05-14T11:11:54.639Z,20.16
2023-05-14T11:16:48.577Z,20.33
2023-05-14T11:21:41.435Z,20.61
2023-05-14T11:26:35.112Z,20.42
2023-05-14T11:31:29.082Z,20.97
2023-05-14T11:36:21.934Z,20.87
2023-05-14T11:41:15.896Z,21.71
2023-05-14T11:46:08.909Z,21.97
2023-05-14T11:51:01.903Z,22.09
2023-05-14T11:55:57.978Z,22.12
2023-05-14T12:00:56.718Z,22.35
2023-05-14T12:06:03.367Z,22.50
2023-05-14T12:10:56.915Z,22.43
2023-05-14T12:15:56.233Z,23.03
2023-05-14T12:20:51.401Z,22.93
2023-05-14T12:25:53.825Z,23.13
2023-05-14T12:30:47.740Z,22.62
2023-05-14T12:35:40.970Z,22.60
2023-05-14T12:40:33.756Z,22.47
2023-05-14T12:45:26.591Z,22.67
2023-05-14T12:50:19.487Z,23.10
2023-05-14T12:55:12.319Z,23.18
2023-05-14T13:00:08.120Z,23.42
2023-05-14T13:05:02.755Z,23.51
2023-05-14T13:09:55.977Z,23.99
2023-05-14T13:14:48.796Z,24.29
2023-05-14T13:19:41.585Z,23.86
2023-05-14T13:24:35.871Z,23.74
2023-05-14T13:29:29.793Z,23.98
2023-05-14T13:34:22.577Z,23.18
2023-05-14T13:39:15.435Z,22.91
2023-05-14T13:44:08.222Z,22.63
2023-05-14T13:49:00.998Z,22.63
2023-05-14T13:58:47.566Z,22.90
2023-05-14T14:03:40.380Z,23.05
2023-05-14T14:08:33.178Z,22.99
2023-05-14T14:13:26.059Z,22.88
2023-05-14T14:18:18.814Z,23.39
2023-05-14T14:23:11.665Z,23.48
2023-05-14T14:28:04.512Z,23.38
2023-05-14T14:32:57.342Z,23.05
2023-05-14T14:37:52.336Z,23.46
2023-05-14T14:42:45.709Z,23.48
2023-05-14T14:47:38.638Z,23.44
2023-05-14T14:52:31.635Z,23.13
2023-05-14T14:57:24.550Z,23.47
2023-05-14T15:02:17.431Z,23.80
2023-05-14T15:07:10.338Z,23.66
2023-05-14T15:12:03.269Z,23.60
2023-05-14T15:16:56.089Z,24.04
2023-05-14T15:21:48.996Z,23.98
2023-05-14T15:26:42.313Z,24.34
2023-05-14T15:31:35.662Z,24.63
2023-05-14T15:36:28.663Z,24.69
2023-05-14T15:41:21.529Z,24.60
2023-05-14T15:46:14.393Z,24.82
2023-05-14T15:51:07.437Z,25.10
2023-05-14T15:56:00.288Z,25.33
2023-05-14T16:00:53.166Z,25.48
2023-05-14T16:05:47.327Z,25.51
2023-05-14T16:10:40.121Z,25.80
2023-05-14T16:15:32.943Z,25.84
2023-05-14T16:20:25.891Z,25.96
2023-05-14T16:25:19.646Z,26.24
2023-05-14T16:30:12.712Z,26.51
2023-05-14T16:35:05.864Z,26.50
2023-05-14T16:39:59.008Z,26.45
2023-05-14T16:44:52.193Z,26.65
2023-05-14T16:49:45.019Z,26.91
2023-05-14T16:54:37.895Z,27.08
2023-05-14T16:59:30.788Z,27.49
2023-05-14T17:04:25.276Z,27.70
2023-05-14T17:09:18.088Z,27.82
2023-05-14T17:14:10.978Z,28.30
2023-05-14T17:19:04.080Z,28.58
2023-05-14T17:23:56.918Z,28.96
2023-05-14T17:28:49.795Z,29.84
2023-05-14T17:33:43.156Z,30.56
2023-05-14T17:38:36.515Z,31.04
2023-05-14T17:43:29.378Z,31.68
2023-05-14T17:48:22.572Z,32.38
2023-05-14T17:53:15.692Z,32.75
2023-05-14T17:58:08.476Z,33.62
2023-05-14T18:03:01.392Z,33.82
2023-05-14T18:07:55.319Z,33.98
2023-05-14T18:12:48.245Z,34.39
2023-05-14T18:17:41.109Z,35.13
2023-05-14T18:22:34.785Z,35.83
2023-05-14T18:27:27.629Z,36.37
2023-05-14T18:32:21.242Z,37.77
2023-05-14T18:37:14.490Z,38.28
2023-05-14T18:42:07.960Z,38.44
2023-05-14T18:47:00.979Z,39.01
2023-05-14T18:51:53.977Z,39.50
2023-05-14T18:56:47.734Z,39.92
2023-05-14T19:01:41.102Z,40.71
2023-05-14T19:06:34.097Z,41.36
2023-05-14T19:11:26.928Z,41.32
2023-05-14T19:16:19.945Z,41.52
2023-05-14T19:21:14.964Z,41.94
2023-05-14T19:26:08.406Z,42.15
2023-05-14T19:31:01.264Z,42.93
2023-05-14T19:35:54.189Z,42.91
2023-05-14T19:40:46.992Z,43.35
2023-05-14T19:45:40.068Z,43.67
2023-05-14T19:50:33.532Z,44.11
2023-05-14T19:55:26.536Z,44.29
2023-05-14T20:00:19.618Z,44.62
2023-05-14T20:05:12.548Z,44.72
2023-05-14T20:10:05.594Z,44.84
2023-05-14T20:14:58.380Z,45.12
2023-05-14T20:19:52.362Z,45.44
2023-05-14T20:24:45.665Z,45.78
2023-05-14T20:29:38.780Z,46.00
2023-05-14T20:34:31.588Z,46.45
2023-05-14T20:39:25.148Z,46.56
2023-05-14T20:44:19.855Z,47.76
2023-05-14T20:49:13.303Z,48.27
2023-05-14T20:54:06.310Z,49.21
2023-05-14T20:59:00.396Z,49.92
2023-05-14T21:03:53.363Z,50.32
2023-05-14T21:08:46.399Z,50.60
2023-05-14T21:13:39.205Z,50.91
2023-05-14T21:18:33.025Z,50.93
2023-05-14T21:23:25.854Z,51.09
2023-05-14T21:28:18.650Z,51.51
2023-05-14T21:33:11.503Z,51.79
2023-05-14T21:38:04.439Z,52.34
2023-05-14T21:42:57.523Z,52.64
2023-05-14T21:47:50.788Z,52.97
2023-05-14T21:52:43.757Z,53.20
2023-05-14T21:57:36.732Z,53.54
2023-05-14T22:02:29.547Z,53.77
2023-05-14T22:07:22.486Z,53.66
2023-05-14T22:12:15.309Z,54.00
2023-05-14T22:17:08.478Z,53.91
2023-05-14T22:22:01.265Z,54.16
2023-05-14T22:26:54.132Z,54.09
2023-05-14T22:31:46.979Z,54.24
2023-05-14T22:36:39.847Z,53.77
2023-05-14T22:41:32.650Z,54.13
2023-05-14T22:46:25.559Z,53.54
2023-05-14T22:51:18.404Z,53.58
2023-05-14T22:56:11.480Z,53.40
2023-05-14T23:01:04.696Z,53.23
2023-05-14T23:05:57.605Z,52.92
2023-05-14T23:10:50.489Z,52.96
2023-05-14T23:15:44.151Z,52.83
2023-05-14T23:20:37.053Z,52.77
2023-05-14T23:25:30.140Z,53.03
2023-05-14T23:30:23.007Z,52.52
2023-05-14T23:35:15.963Z,52.53
2023-05-14T23:40:10.009Z,52.01
2023-05-14T23:45:02.851Z,52.38
2023-05-14T23:49:55.679Z,52.27
2023-05-14T23:54:48.461Z,52.26
2023-05-14T23:59:41.294Z,51.99
